sensor_id;sensor_type;location;lat;lon;timestamp;pressure;altitude;pressure_sealevel;temperature;humidity
79037;BME280;68434;59.896;30.474;2023-04-15T00:00:51;103023.97;;;3.43;34.94
79037;BME280;68434;59.896;30.474;2023-04-15T00:03:19;103024.09;;;3.40;34.96
79037;BME280;68434;59.896;30.474;2023-04-15T00:05:47;103020.25;;;3.47;34.58
79037;BME280;68434;59.896;30.474;2023-04-15T00:08:15;103025.94;;;3.38;34.49
79037;BME280;68434;59.896;30.474;2023-04-15T00:10:44;103028.09;;;3.27;35.34
79037;BME280;68434;59.896;30.474;2023-04-15T00:13:12;103033.06;;;3.38;34.89
79037;BME280;68434;59.896;30.474;2023-04-15T00:15:40;103028.03;;;3.29;35.12
79037;BME280;68434;59.896;30.474;2023-04-15T00:18:08;103036.13;;;3.27;35.06
79037;BME280;68434;59.896;30.474;2023-04-15T00:20:36;103033.59;;;3.23;35.08
79037;BME280;68434;59.896;30.474;2023-04-15T00:23:03;103038.25;;;3.18;34.80
79037;BME280;68434;59.896;30.474;2023-04-15T00:25:31;103030.94;;;3.23;34.55
79037;BME280;68434;59.896;30.474;2023-04-15T00:28:00;103036.13;;;3.27;34.84
79037;BME280;68434;59.896;30.474;2023-04-15T00:30:28;103035.31;;;3.25;34.93
79037;BME280;68434;59.896;30.474;2023-04-15T00:32:56;103031.50;;;3.32;34.91
79037;BME280;68434;59.896;30.474;2023-04-15T00:35:24;103049.66;;;3.23;34.68
79037;BME280;68434;59.896;30.474;2023-04-15T00:37:51;103036.63;;;3.12;34.57
79037;BME280;68434;59.896;30.474;2023-04-15T00:40:20;103041.84;;;3.17;35.04
79037;BME280;68434;59.896;30.474;2023-04-15T00:42:50;103050.69;;;3.19;34.60
79037;BME280;68434;59.896;30.474;2023-04-15T00:45:19;103047.19;;;3.17;35.21
79037;BME280;68434;59.896;30.474;2023-04-15T00:47:46;103045.25;;;3.22;34.77
79037;BME280;68434;59.896;30.474;2023-04-15T00:50:14;103057.94;;;3.15;34.97
79037;BME280;68434;59.896;30.474;2023-04-15T00:52:43;103057.38;;;3.06;34.80
79037;BME280;68434;59.896;30.474;2023-04-15T00:55:10;103052.28;;;2.98;34.77
79037;BME280;68434;59.896;30.474;2023-04-15T00:57:39;103052.94;;;3.05;35.54
79037;BME280;68434;59.896;30.474;2023-04-15T01:00:07;103045.06;;;3.00;35.18
79037;BME280;68434;59.896;30.474;2023-04-15T01:02:38;103052.94;;;3.05;35.42
79037;BME280;68434;59.896;30.474;2023-04-15T01:05:06;103043.97;;;3.07;35.12
79037;BME280;68434;59.896;30.474;2023-04-15T01:07:34;103050.22;;;3.06;35.36
79037;BME280;68434;59.896;30.474;2023-04-15T01:10:02;103060.88;;;3.08;35.16
79037;BME280;68434;59.896;30.474;2023-04-15T01:12:31;103057.59;;;3.00;34.67
79037;BME280;68434;59.896;30.474;2023-04-15T01:14:59;103055.03;;;2.97;34.97
79037;BME280;68434;59.896;30.474;2023-04-15T01:17:27;103051.41;;;2.98;35.36
79037;BME280;68434;59.896;30.474;2023-04-15T01:19:56;103049.63;;;2.98;35.40
79037;BME280;68434;59.896;30.474;2023-04-15T01:22:25;103043.50;;;2.95;35.42
79037;BME280;68434;59.896;30.474;2023-04-15T01:24:54;103047.75;;;3.00;35.45
79037;BME280;68434;59.896;30.474;2023-04-15T01:27:24;103051.47;;;2.96;34.83
79037;BME280;68434;59.896;30.474;2023-04-15T01:29:51;103052.28;;;2.98;35.16
79037;BME280;68434;59.896;30.474;2023-04-15T01:32:19;103044.31;;;2.97;35.46
79037;BME280;68434;59.896;30.474;2023-04-15T01:35:05;103046.38;;;2.89;35.00
79037;BME280;68434;59.896;30.474;2023-04-15T01:37:47;103048.06;;;2.91;35.81
79037;BME280;68434;59.896;30.474;2023-04-15T01:40:16;103054.34;;;2.90;35.32
79037;BME280;68434;59.896;30.474;2023-04-15T01:42:46;103049.78;;;2.94;35.66
79037;BME280;68434;59.896;30.474;2023-04-15T01:45:16;103039.63;;;2.77;35.49
79037;BME280;68434;59.896;30.474;2023-04-15T01:47:44;103043.78;;;2.86;35.44
79037;BME280;68434;59.896;30.474;2023-04-15T01:50:13;103050.94;;;2.85;35.61
79037;BME280;68434;59.896;30.474;2023-04-15T01:52:42;103049.38;;;2.78;35.40
79037;BME280;68434;59.896;30.474;2023-04-15T01:55:11;103046.72;;;2.78;35.86
79037;BME280;68434;59.896;30.474;2023-04-15T01:57:40;103043.94;;;2.81;35.50
79037;BME280;68434;59.896;30.474;2023-04-15T02:00:11;103048.44;;;2.79;35.56
79037;BME280;68434;59.896;30.474;2023-04-15T02:02:42;103053.69;;;2.82;35.72
79037;BME280;68434;59.896;30.474;2023-04-15T02:05:11;103047.59;;;2.79;35.44
79037;BME280;68434;59.896;30.474;2023-04-15T02:07:39;103054.38;;;2.89;35.73
79037;BME280;68434;59.896;30.474;2023-04-15T02:10:09;103053.09;;;2.74;35.99
79037;BME280;68434;59.896;30.474;2023-04-15T02:12:39;103050.13;;;2.83;35.90
79037;BME280;68434;59.896;30.474;2023-04-15T02:15:10;103053.81;;;2.79;35.59
79037;BME280;68434;59.896;30.474;2023-04-15T02:17:38;103062.00;;;2.73;36.05
79037;BME280;68434;59.896;30.474;2023-04-15T02:20:09;103068.28;;;2.72;35.75
79037;BME280;68434;59.896;30.474;2023-04-15T02:22:37;103058.38;;;2.76;36.00
79037;BME280;68434;59.896;30.474;2023-04-15T02:25:08;103063.69;;;2.77;36.18
79037;BME280;68434;59.896;30.474;2023-04-15T02:27:37;103059.94;;;2.83;35.82
79037;BME280;68434;59.896;30.474;2023-04-15T02:30:06;103061.63;;;2.85;35.87
79037;BME280;68434;59.896;30.474;2023-04-15T02:32:37;103058.16;;;2.83;35.94
79037;BME280;68434;59.896;30.474;2023-04-15T02:35:07;103065.13;;;2.87;35.88
79037;BME280;68434;59.896;30.474;2023-04-15T02:37:36;103061.66;;;2.84;35.67
79037;BME280;68434;59.896;30.474;2023-04-15T02:40:11;103063.53;;;2.82;35.60
79037;BME280;68434;59.896;30.474;2023-04-15T02:42:40;103061.66;;;2.84;35.23
79037;BME280;68434;59.896;30.474;2023-04-15T02:45:13;103066.88;;;2.88;35.64
79037;BME280;68434;59.896;30.474;2023-04-15T02:47:44;103068.59;;;2.91;35.56
79037;BME280;68434;59.896;30.474;2023-04-15T02:50:13;103064.09;;;2.91;35.08
79037;BME280;68434;59.896;30.474;2023-04-15T02:52:43;103065.81;;;2.94;35.23
79037;BME280;68434;59.896;30.474;2023-04-15T02:55:11;103066.56;;;2.97;35.34
79037;BME280;68434;59.896;30.474;2023-04-15T02:57:40;103072.06;;;2.93;35.32
79037;BME280;68434;59.896;30.474;2023-04-15T03:00:12;103064.94;;;2.93;34.97
79037;BME280;68434;59.896;30.474;2023-04-15T03:02:45;103072.66;;;3.02;35.19
79037;BME280;68434;59.896;30.474;2023-04-15T03:05:14;103058.66;;;2.94;34.87
79037;BME280;68434;59.896;30.474;2023-04-15T03:07:48;103069.13;;;3.00;34.74
79037;BME280;68434;59.896;30.474;2023-04-15T03:10:17;103070.81;;;3.04;35.12
79037;BME280;68434;59.896;30.474;2023-04-15T03:12:47;103073.38;;;3.07;35.30
79037;BME280;68434;59.896;30.474;2023-04-15T03:15:19;103080.56;;;3.05;35.22
79037;BME280;68434;59.896;30.474;2023-04-15T03:17:52;103079.38;;;3.14;34.66
79037;BME280;68434;59.896;30.474;2023-04-15T03:20:21;103078.69;;;3.09;35.25
79037;BME280;68434;59.896;30.474;2023-04-15T03:22:50;103076.72;;;3.14;35.03
79037;BME280;68434;59.896;30.474;2023-04-15T03:25:20;103079.13;;;3.21;34.68
79037;BME280;68434;59.896;30.474;2023-04-15T03:27:49;103085.41;;;3.20;34.59
79037;BME280;68434;59.896;30.474;2023-04-15T03:30:18;103080.13;;;3.19;34.29
79037;BME280;68434;59.896;30.474;2023-04-15T03:32:46;103086.94;;;3.27;34.25
79037;BME280;68434;59.896;30.474;2023-04-15T03:35:16;103087.81;;;3.28;34.40
79037;BME280;68434;59.896;30.474;2023-04-15T03:37:45;103084.06;;;3.33;34.25
79037;BME280;68434;59.896;30.474;2023-04-15T03:40:15;103083.94;;;3.36;34.01
79037;BME280;68434;59.896;30.474;2023-04-15T03:42:43;103087.41;;;3.40;33.94
79037;BME280;68434;59.896;30.474;2023-04-15T03:45:12;103082.69;;;3.48;34.21
79037;BME280;68434;59.896;30.474;2023-04-15T03:47:41;103082.53;;;3.52;33.95
79037;BME280;68434;59.896;30.474;2023-04-15T03:50:10;103089.81;;;3.47;33.85
79037;BME280;68434;59.896;30.474;2023-04-15T03:52:40;103085.34;;;3.48;34.51
79037;BME280;68434;59.896;30.474;2023-04-15T03:55:08;103083.53;;;3.48;34.06
79037;BME280;68434;59.896;30.474;2023-04-15T03:57:37;103095.19;;;3.47;33.55
79037;BME280;68434;59.896;30.474;2023-04-15T04:00:07;103082.53;;;3.52;33.33
79037;BME280;68434;59.896;30.474;2023-04-15T04:02:39;103087.72;;;3.57;33.09
79037;BME280;68434;59.896;30.474;2023-04-15T04:05:08;103080.59;;;3.56;33.01
79037;BME280;68434;59.896;30.474;2023-04-15T04:07:36;103086.66;;;3.61;33.26
79037;BME280;68434;59.896;30.474;2023-04-15T04:10:07;103083.72;;;3.68;33.59
79037;BME280;68434;59.896;30.474;2023-04-15T04:12:36;103072.50;;;3.82;33.26
79037;BME280;68434;59.896;30.474;2023-04-15T04:15:06;103085.00;;;3.81;32.90
79037;BME280;68434;59.896;30.474;2023-04-15T04:17:35;103094.44;;;3.68;32.15
79037;BME280;68434;59.896;30.474;2023-04-15T04:20:04;103091.59;;;3.73;32.74
79037;BME280;68434;59.896;30.474;2023-04-15T04:22:37;103095.66;;;3.83;32.94
79037;BME280;68434;59.896;30.474;2023-04-15T04:25:08;103085.50;;;3.92;32.58
79037;BME280;68434;59.896;30.474;2023-04-15T04:27:37;103086.19;;;3.99;32.32
79037;BME280;68434;59.896;30.474;2023-04-15T04:30:07;103089.25;;;4.12;32.31
79037;BME280;68434;59.896;30.474;2023-04-15T04:32:36;103078.09;;;4.01;32.38
79037;BME280;68434;59.896;30.474;2023-04-15T04:35:05;103082.50;;;4.02;32.21
79037;BME280;68434;59.896;30.474;2023-04-15T04:37:34;103084.00;;;4.09;31.91
79037;BME280;68434;59.896;30.474;2023-04-15T04:40:03;103081.28;;;4.10;31.73
79037;BME280;68434;59.896;30.474;2023-04-15T04:42:34;103085.78;;;4.10;32.02
79037;BME280;68434;59.896;30.474;2023-04-15T04:45:03;103083.00;;;4.13;31.74
79037;BME280;68434;59.896;30.474;2023-04-15T04:47:31;103089.56;;;4.27;31.92
79037;BME280;68434;59.896;30.474;2023-04-15T04:50:00;103088.16;;;4.40;31.41
79037;BME280;68434;59.896;30.474;2023-04-15T04:52:29;103092.44;;;4.46;31.23
79037;BME280;68434;59.896;30.474;2023-04-15T04:54:58;103095.03;;;4.47;31.16
79037;BME280;68434;59.896;30.474;2023-04-15T04:57:26;103094.03;;;4.50;31.32
79037;BME280;68434;59.896;30.474;2023-04-15T04:59:57;103093.97;;;4.51;31.07
79037;BME280;68434;59.896;30.474;2023-04-15T05:02:25;103092.84;;;4.57;30.96
79037;BME280;68434;59.896;30.474;2023-04-15T05:04:54;103098.81;;;4.65;30.31
79037;BME280;68434;59.896;30.474;2023-04-15T05:07:23;103093.13;;;4.72;30.59
79037;BME280;68434;59.896;30.474;2023-04-15T05:09:51;103090.97;;;4.82;30.11
79037;BME280;68434;59.896;30.474;2023-04-15T05:12:20;103093.59;;;4.83;30.52
79037;BME280;68434;59.896;30.474;2023-04-15T05:14:49;103097.91;;;4.87;30.50
79037;BME280;68434;59.896;30.474;2023-04-15T05:17:19;103103.84;;;4.95;29.85
79037;BME280;68434;59.896;30.474;2023-04-15T05:19:48;103095.22;;;5.09;30.20
79037;BME280;68434;59.896;30.474;2023-04-15T05:22:16;103099.06;;;5.23;29.67
79037;BME280;68434;59.896;30.474;2023-04-15T05:24:45;103104.13;;;5.31;29.49
79037;BME280;68434;59.896;30.474;2023-04-15T05:27:14;103099.34;;;5.37;29.64
79037;BME280;68434;59.896;30.474;2023-04-15T05:29:42;103099.78;;;5.27;29.00
79037;BME280;68434;59.896;30.474;2023-04-15T05:32:11;103099.47;;;5.34;29.03
79037;BME280;68434;59.896;30.474;2023-04-15T05:34:41;103098.22;;;5.43;28.97
79037;BME280;68434;59.896;30.474;2023-04-15T05:37:10;103097.66;;;5.56;28.66
79037;BME280;68434;59.896;30.474;2023-04-15T05:39:38;103106.88;;;5.49;28.19
79037;BME280;68434;59.896;30.474;2023-04-15T05:42:08;103100.91;;;5.63;28.84
79037;BME280;68434;59.896;30.474;2023-04-15T05:44:37;103101.59;;;5.68;28.61
79037;BME280;68434;59.896;30.474;2023-04-15T05:47:05;103096.53;;;5.82;28.47
79037;BME280;68434;59.896;30.474;2023-04-15T05:49:35;103099.25;;;5.80;27.90
79037;BME280;68434;59.896;30.474;2023-04-15T05:52:06;103097.47;;;6.01;28.19
79037;BME280;68434;59.896;30.474;2023-04-15T05:54:34;103091.13;;;6.22;27.73
79037;BME280;68434;59.896;30.474;2023-04-15T05:57:03;103102.31;;;6.32;27.34
79037;BME280;68434;59.896;30.474;2023-04-15T05:59:32;103100.28;;;6.37;27.95
79037;BME280;68434;59.896;30.474;2023-04-15T06:02:00;103098.81;;;6.30;27.04
79037;BME280;68434;59.896;30.474;2023-04-15T06:04:29;103095.69;;;6.20;26.90
79037;BME280;68434;59.896;30.474;2023-04-15T06:06:58;103095.53;;;6.23;27.27
79037;BME280;68434;59.896;30.474;2023-04-15T06:09:28;103097.72;;;6.34;26.88
79037;BME280;68434;59.896;30.474;2023-04-15T06:11:58;103101.75;;;6.62;26.73
79037;BME280;68434;59.896;30.474;2023-04-15T06:14:27;103103.94;;;6.54;26.61
79037;BME280;68434;59.896;30.474;2023-04-15T06:16:56;103103.06;;;6.54;26.11
79037;BME280;68434;59.896;30.474;2023-04-15T06:19:25;103103.63;;;6.79;26.36
79037;BME280;68434;59.896;30.474;2023-04-15T06:21:54;103106.81;;;7.05;26.38
79037;BME280;68434;59.896;30.474;2023-04-15T06:24:23;103114.75;;;7.08;25.60
79037;BME280;68434;59.896;30.474;2023-04-15T06:26:53;103109.00;;;6.97;25.29
79037;BME280;68434;59.896;30.474;2023-04-15T06:29:22;103105.13;;;7.21;26.10
79037;BME280;68434;59.896;30.474;2023-04-15T06:31:50;103107.44;;;7.46;25.84
79037;BME280;68434;59.896;30.474;2023-04-15T06:34:19;103104.56;;;7.32;25.84
79037;BME280;68434;59.896;30.474;2023-04-15T06:36:48;103103.38;;;7.37;25.48
79037;BME280;68434;59.896;30.474;2023-04-15T06:39:16;103107.38;;;7.47;25.81
79037;BME280;68434;59.896;30.474;2023-04-15T06:41:45;103098.59;;;7.61;25.34
79037;BME280;68434;59.896;30.474;2023-04-15T06:44:15;103098.91;;;7.55;25.45
79037;BME280;68434;59.896;30.474;2023-04-15T06:46:46;103100.88;;;7.51;25.40
79037;BME280;68434;59.896;30.474;2023-04-15T06:49:15;103101.66;;;7.70;25.27
79037;BME280;68434;59.896;30.474;2023-04-15T06:51:44;103103.63;;;7.84;25.47
79037;BME280;68434;59.896;30.474;2023-04-15T06:54:12;103104.28;;;7.72;24.90
79037;BME280;68434;59.896;30.474;2023-04-15T06:56:41;103111.06;;;7.79;24.44
79037;BME280;68434;59.896;30.474;2023-04-15T06:59:10;103095.06;;;7.93;24.33
79037;BME280;68434;59.896;30.474;2023-04-15T07:01:42;103104.88;;;7.94;24.42
79037;BME280;68434;59.896;30.474;2023-04-15T07:04:11;103108.78;;;7.89;24.68
79037;BME280;68434;59.896;30.474;2023-04-15T07:06:40;103095.06;;;7.93;25.15
79037;BME280;68434;59.896;30.474;2023-04-15T07:09:09;103104.13;;;7.92;24.32
79037;BME280;68434;59.896;30.474;2023-04-15T07:11:38;103103.16;;;7.76;23.93
79037;BME280;68434;59.896;30.474;2023-04-15T07:14:07;103109.25;;;7.80;23.92
79037;BME280;68434;59.896;30.474;2023-04-15T07:16:36;103101.78;;;8.02;24.67
79037;BME280;68434;59.896;30.474;2023-04-15T07:19:06;103107.06;;;7.88;24.18
79037;BME280;68434;59.896;30.474;2023-04-15T07:21:36;103110.16;;;7.80;23.96
79037;BME280;68434;59.896;30.474;2023-04-15T07:24:05;103109.81;;;7.69;24.27
79037;BME280;68434;59.896;30.474;2023-04-15T07:26:34;103109.25;;;7.80;23.88
79037;BME280;68434;59.896;30.474;2023-04-15T07:29:05;103109.59;;;7.73;24.13
79037;BME280;68434;59.896;30.474;2023-04-15T07:31:35;103108.84;;;8.04;24.13
79037;BME280;68434;59.896;30.474;2023-04-15T07:34:07;103113.94;;;7.76;24.45
79037;BME280;68434;59.896;30.474;2023-04-15T07:36:36;103115.47;;;7.47;24.13
79037;BME280;68434;59.896;30.474;2023-04-15T07:39:06;103120.75;;;7.66;24.26
79037;BME280;68434;59.896;30.474;2023-04-15T07:41:37;103120.53;;;7.70;24.27
79037;BME280;68434;59.896;30.474;2023-04-15T07:44:07;103124.31;;;7.84;23.96
79037;BME280;68434;59.896;30.474;2023-04-15T07:46:36;103128.59;;;7.70;24.10
79037;BME280;68434;59.896;30.474;2023-04-15T07:49:04;103116.38;;;7.98;23.82
79037;BME280;68434;59.896;30.474;2023-04-15T07:51:35;103117.19;;;8.00;24.63
79037;BME280;68434;59.896;30.474;2023-04-15T07:54:05;103115.66;;;8.11;23.88
79037;BME280;68434;59.896;30.474;2023-04-15T07:56:35;103114.44;;;8.17;24.56
79037;BME280;68434;59.896;30.474;2023-04-15T07:59:04;103117.38;;;8.12;24.13
79037;BME280;68434;59.896;30.474;2023-04-15T08:01:33;103114.16;;;8.06;24.65
79037;BME280;68434;59.896;30.474;2023-04-15T08:04:02;103120.03;;;7.80;24.69
79037;BME280;68434;59.896;30.474;2023-04-15T08:06:33;103116.78;;;7.73;24.81
79037;BME280;68434;59.896;30.474;2023-04-15T08:11:51;103112.72;;;7.99;24.45
79037;BME280;68434;59.896;30.474;2023-04-15T08:14:20;103101.03;;;8.15;24.36
79037;BME280;68434;59.896;30.474;2023-04-15T08:16:49;103112.78;;;8.14;24.22
79037;BME280;68434;59.896;30.474;2023-04-15T08:19:17;103101.22;;;8.12;24.05
79037;BME280;68434;59.896;30.474;2023-04-15T08:21:46;103114.19;;;7.89;24.81
79037;BME280;68434;59.896;30.474;2023-04-15T08:24:17;103112.00;;;8.12;24.88
79037;BME280;68434;59.896;30.474;2023-04-15T08:26:46;103108.59;;;8.26;24.06
79037;BME280;68434;59.896;30.474;2023-04-15T08:29:14;103105.53;;;7.99;23.94
79037;BME280;68434;59.896;30.474;2023-04-15T08:31:43;103108.28;;;8.15;24.59
79037;BME280;68434;59.896;30.474;2023-04-15T08:34:12;103100.22;;;8.47;24.32
79037;BME280;68434;59.896;30.474;2023-04-15T08:36:41;103097.75;;;8.43;23.96
79037;BME280;68434;59.896;30.474;2023-04-15T08:39:09;103107.94;;;8.38;23.71
79037;BME280;68434;59.896;30.474;2023-04-15T08:42:11;103103.41;;;8.38;24.58
79037;BME280;68434;59.896;30.474;2023-04-15T08:44:45;103096.72;;;8.45;24.09
79037;BME280;68434;59.896;30.474;2023-04-15T08:47:16;103094.84;;;8.30;23.84
79037;BME280;68434;59.896;30.474;2023-04-15T08:49:49;103089.16;;;8.52;23.75
79037;BME280;68434;59.896;30.474;2023-04-15T08:52:20;103091.88;;;8.52;23.62
79037;BME280;68434;59.896;30.474;2023-04-15T08:54:50;103091.25;;;8.47;23.57
79037;BME280;68434;59.896;30.474;2023-04-15T08:57:23;103091.53;;;8.58;23.13
79037;BME280;68434;59.896;30.474;2023-04-15T08:59:52;103096.88;;;8.42;24.04
79037;BME280;68434;59.896;30.474;2023-04-15T09:02:22;103087.16;;;8.40;23.83
79037;BME280;68434;59.896;30.474;2023-04-15T09:04:52;103084.03;;;8.47;23.42
79037;BME280;68434;59.896;30.474;2023-04-15T09:07:21;103086.63;;;8.49;23.38
79037;BME280;68434;59.896;30.474;2023-04-15T09:09:50;103088.03;;;8.40;23.97
79037;BME280;68434;59.896;30.474;2023-04-15T09:12:19;103077.53;;;8.67;23.09
79037;BME280;68434;59.896;30.474;2023-04-15T09:14:49;103089.34;;;8.49;22.59
79037;BME280;68434;59.896;30.474;2023-04-15T09:17:19;103083.88;;;8.66;22.90
79037;BME280;68434;59.896;30.474;2023-04-15T09:19:48;103082.72;;;8.54;21.96
79037;BME280;68434;59.896;30.474;2023-04-15T09:22:19;103089.34;;;8.49;22.94
79037;BME280;68434;59.896;30.474;2023-04-15T09:24:48;103083.63;;;8.70;22.36
79037;BME280;68434;59.896;30.474;2023-04-15T09:27:17;103078.75;;;8.92;22.61
79037;BME280;68434;59.896;30.474;2023-04-15T09:29:50;103079.53;;;8.79;22.22
79037;BME280;68434;59.896;30.474;2023-04-15T09:32:19;103075.28;;;8.75;21.86
79037;BME280;68434;59.896;30.474;2023-04-15T09:34:50;103081.34;;;8.78;21.88
79037;BME280;68434;59.896;30.474;2023-04-15T09:37:18;103075.00;;;8.64;22.31
79037;BME280;68434;59.896;30.474;2023-04-15T09:40:02;103077.25;;;8.56;22.69
79037;BME280;68434;59.896;30.474;2023-04-15T09:42:31;103079.25;;;8.83;23.13
79037;BME280;68434;59.896;30.474;2023-04-15T09:45:10;103082.31;;;8.93;21.34
79037;BME280;68434;59.896;30.474;2023-04-15T09:47:39;103084.22;;;9.06;21.97
79037;BME280;68434;59.896;30.474;2023-04-15T09:50:08;103079.84;;;9.04;21.43
79037;BME280;68434;59.896;30.474;2023-04-15T09:52:40;103078.03;;;9.04;21.96
79037;BME280;68434;59.896;30.474;2023-04-15T09:55:11;103077.50;;;8.98;22.11
79037;BME280;68434;59.896;30.474;2023-04-15T09:57:40;103077.97;;;9.35;22.57
79037;BME280;68434;59.896;30.474;2023-04-15T10:00:28;103073.44;;;9.36;22.01
79037;BME280;68434;59.896;30.474;2023-04-15T10:02:58;103079.50;;;9.25;21.51
79037;BME280;68434;59.896;30.474;2023-04-15T10:05:28;103081.16;;;9.12;22.37
79037;BME280;68434;59.896;30.474;2023-04-15T10:07:58;103081.09;;;9.14;21.36
79037;BME280;68434;59.896;30.474;2023-04-15T10:10:27;103074.34;;;9.36;22.23
79037;BME280;68434;59.896;30.474;2023-04-15T10:12:56;103072.44;;;9.52;22.32
79037;BME280;68434;59.896;30.474;2023-04-15T10:15:24;103073.81;;;9.30;20.64
79037;BME280;68434;59.896;30.474;2023-04-15T10:18:15;103076.88;;;9.24;21.33
79037;BME280;68434;59.896;30.474;2023-04-15T10:20:45;103075.50;;;9.17;21.12
79037;BME280;68434;59.896;30.474;2023-04-15T10:23:14;103071.25;;;8.97;21.21
79037;BME280;68434;59.896;30.474;2023-04-15T10:25:45;103072.88;;;9.15;21.70
79037;BME280;68434;59.896;30.474;2023-04-15T10:28:14;103064.19;;;9.10;21.75
79037;BME280;68434;59.896;30.474;2023-04-15T10:30:44;103067.00;;;9.38;21.88
79037;BME280;68434;59.896;30.474;2023-04-15T10:33:16;103061.13;;;9.16;21.24
79037;BME280;68434;59.896;30.474;2023-04-15T10:35:47;103071.47;;;9.24;22.36
79037;BME280;68434;59.896;30.474;2023-04-15T10:38:34;103068.06;;;9.20;22.11
79037;BME280;68434;59.896;30.474;2023-04-15T10:41:19;103070.75;;;9.36;21.17
79037;BME280;68434;59.896;30.474;2023-04-15T10:44:05;103064.44;;;9.21;22.12
79037;BME280;68434;59.896;30.474;2023-04-15T10:46:36;103067.13;;;9.21;21.48
79037;BME280;68434;59.896;30.474;2023-04-15T10:49:10;103052.63;;;9.38;22.09
79037;BME280;68434;59.896;30.474;2023-04-15T10:51:41;103053.09;;;9.30;22.05
79037;BME280;68434;59.896;30.474;2023-04-15T10:54:14;103060.25;;;9.16;21.27
79037;BME280;68434;59.896;30.474;2023-04-15T10:56:43;103062.84;;;9.17;20.71
79037;BME280;68434;59.896;30.474;2023-04-15T10:59:12;103061.59;;;9.38;20.85
79037;BME280;68434;59.896;30.474;2023-04-15T11:01:50;103056.19;;;9.38;20.60
79037;BME280;68434;59.896;30.474;2023-04-15T11:04:52;103063.19;;;9.56;21.22
79037;BME280;68434;59.896;30.474;2023-04-15T11:07:51;103056.59;;;9.46;21.14
79037;BME280;68434;59.896;30.474;2023-04-15T11:10:50;103054.34;;;9.39;21.48
79037;BME280;68434;59.896;30.474;2023-04-15T11:13:24;103053.03;;;9.46;21.85
79037;BME280;68434;59.896;30.474;2023-04-15T11:16:13;103056.44;;;9.34;21.94
79037;BME280;68434;59.896;30.474;2023-04-15T11:22:07;103045.88;;;9.45;22.09
79037;BME280;68434;59.896;30.474;2023-04-15T11:24:46;103035.72;;;9.34;22.33
79037;BME280;68434;59.896;30.474;2023-04-15T11:27:32;103043.66;;;9.37;22.30
79037;BME280;68434;59.896;30.474;2023-04-15T11:30:01;103034.81;;;9.49;21.49
79037;BME280;68434;59.896;30.474;2023-04-15T11:32:43;103041.56;;;9.56;22.10
79037;BME280;68434;59.896;30.474;2023-04-15T11:35:11;103041.84;;;9.52;21.95
79037;BME280;68434;59.896;30.474;2023-04-15T11:37:42;103037.22;;;9.54;21.67
79037;BME280;68434;59.896;30.474;2023-04-15T11:40:11;103032.19;;;9.48;22.37
79037;BME280;68434;59.896;30.474;2023-04-15T11:43:03;103047.78;;;9.29;22.91
79037;BME280;68434;59.896;30.474;2023-04-15T11:45:51;103033.72;;;9.38;22.65
79037;BME280;68434;59.896;30.474;2023-04-15T11:48:22;103031.59;;;9.43;22.89
79037;BME280;68434;59.896;30.474;2023-04-15T11:50:55;103022.06;;;9.51;21.97
79037;BME280;68434;59.896;30.474;2023-04-15T11:53:38;103019.28;;;9.53;22.23
79037;BME280;68434;59.896;30.474;2023-04-15T11:56:07;103015.47;;;9.71;21.77
79037;BME280;68434;59.896;30.474;2023-04-15T12:01:43;103006.22;;;9.89;22.95
79037;BME280;68434;59.896;30.474;2023-04-15T12:04:13;102999.72;;;9.92;22.55
79037;BME280;68434;59.896;30.474;2023-04-15T12:06:42;102997.53;;;10.12;22.24
79037;BME280;68434;59.896;30.474;2023-04-15T12:09:12;102996.38;;;10.16;22.47
79037;BME280;68434;59.896;30.474;2023-04-15T12:11:57;102994.13;;;10.23;22.34
79037;BME280;68434;59.896;30.474;2023-04-15T12:14:26;102999.84;;;10.18;21.65
79037;BME280;68434;59.896;30.474;2023-04-15T12:16:57;103001.38;;;10.36;21.40
79037;BME280;68434;59.896;30.474;2023-04-15T12:19:27;102996.06;;;10.35;21.03
79037;BME280;68434;59.896;30.474;2023-04-15T12:21:57;103002.28;;;10.49;21.05
79037;BME280;68434;59.896;30.474;2023-04-15T12:24:30;102995.00;;;10.23;19.61
79037;BME280;68434;59.896;30.474;2023-04-15T12:27:01;102995.97;;;10.36;20.17
79037;BME280;68434;59.896;30.474;2023-04-15T12:29:30;102997.44;;;10.28;19.21
79037;BME280;68434;59.896;30.474;2023-04-15T12:32:03;103000.34;;;10.25;19.55
79037;BME280;68434;59.896;30.474;2023-04-15T12:34:33;102995.69;;;10.13;19.45
79037;BME280;68434;59.896;30.474;2023-04-15T12:37:38;102996.16;;;10.05;19.35
79037;BME280;68434;59.896;30.474;2023-04-15T12:40:08;102990.06;;;10.02;20.16
79037;BME280;68434;59.896;30.474;2023-04-15T12:42:35;102998.31;;;10.14;19.76
79037;BME280;68434;59.896;30.474;2023-04-15T12:45:04;102987.88;;;10.22;19.11
79037;BME280;68434;59.896;30.474;2023-04-15T12:50:18;102996.59;;;10.13;19.81
79037;BME280;68434;59.896;30.474;2023-04-15T12:52:45;102990.38;;;10.11;19.25
79037;BME280;68434;59.896;30.474;2023-04-15T12:55:14;102991.47;;;10.09;19.45
79037;BME280;68434;59.896;30.474;2023-04-15T12:57:43;102989.41;;;10.26;19.67
79037;BME280;68434;59.896;30.474;2023-04-15T13:00:11;102990.78;;;10.19;19.27
79037;BME280;68434;59.896;30.474;2023-04-15T13:02:39;102993.59;;;10.18;19.64
79037;BME280;68434;59.896;30.474;2023-04-15T13:05:25;102990.47;;;10.10;19.12
79037;BME280;68434;59.896;30.474;2023-04-15T13:07:53;102986.59;;;10.14;19.74
79037;BME280;68434;59.896;30.474;2023-04-15T13:10:22;102982.81;;;10.02;19.93
79037;BME280;68434;59.896;30.474;2023-04-15T13:12:50;102982.56;;;10.07;19.89
79037;BME280;68434;59.896;30.474;2023-04-15T13:15:18;102980.81;;;10.20;19.95
79037;BME280;68434;59.896;30.474;2023-04-15T13:17:47;102975.41;;;10.20;19.79
79037;BME280;68434;59.896;30.474;2023-04-15T13:20:15;102972.97;;;10.29;20.31